Time;durP1;ratioP1;P1;durP2;ratioP2;P2;SDS_P1;SDS_P2;PMS_P1;PMS_P2;Temp;Humidity;BMP_temperature;BMP_pressure;BME280_temperature;BME280_humidity;BME280_pressure;Samples;Min_cycle;Max_cycle;Signal;HPM_P1;HPM_P2
2023/10/15 00:01:28;;;;;;;;;;;;;;;5.17;100.00;101829.81;5016260;28;19917;-76
2023/10/15 00:03:53;;;;;;;;;;;;;;;5.16;100.00;101828.91;5012041;28;20399;-77
2023/10/15 00:06:18;;;;;;;;;;;;;;;5.20;100.00;101824.69;5035278;28;20570;-76
2023/10/15 00:08:43;;;;;;;;;;;;;;;5.29;100.00;101832.53;5027789;28;19942;-76
2023/10/15 00:11:12;;;;;;;;;;;;;;;5.39;100.00;101842.19;5040091;28;19932;-76
2023/10/15 00:13:38;;;;;;;;;;;;;;;5.51;100.00;101850.94;5039339;28;19939;-76
2023/10/15 00:16:03;;;;;;;;;;;;;;;5.59;100.00;101857.06;5016599;28;20351;-76
2023/10/15 00:18:28;;;;;;;;;;;;;;;5.64;100.00;101853.72;5023808;28;19929;-77
2023/10/15 00:20:54;;;;;;;;;;;;;;;5.70;100.00;101849.47;5020863;28;19916;-76
2023/10/15 00:23:19;;;;;;;;;;;;;;;5.74;100.00;101859.00;5019986;28;20061;-76
2023/10/15 00:25:47;;;;;;;;;;;;;;;5.78;100.00;101861.63;5014753;28;20007;-76
2023/10/15 00:28:12;;;;;;;;;;;;;;;5.85;100.00;101863.47;5022478;28;19917;-76
2023/10/15 00:30:39;;;;;;;;;;;;;;;5.90;100.00;101860.06;5018447;28;19942;-76
2023/10/15 00:33:08;;;;;;;;;;;;;;;5.95;100.00;101853.25;5012228;28;19970;-76
2023/10/15 00:35:35;;;;;;;;;;;;;;;5.99;100.00;101855.91;5016257;28;20012;-76
2023/10/15 00:38:37;;;;;;;;;;;;;;;6.04;100.00;101856.81;5016358;28;20429;-76
2023/10/15 00:41:00;;;;;;;;;;;;;;;6.10;100.00;101859.47;5004276;28;19943;-76
2023/10/15 00:43:26;;;;;;;;;;;;;;;6.12;100.00;101864.69;5022739;28;19917;-76
2023/10/15 00:45:51;;;;;;;;;;;;;;;6.12;100.00;101854.31;5025907;28;19922;-76
2023/10/15 00:48:36;;;;;;;;;;;;;;;6.13;100.00;101840.53;5021943;28;20015;-76
2023/10/15 00:51:04;;;;;;;;;;;;;;;6.12;100.00;101832.75;5019489;28;19924;-76
2023/10/15 00:53:29;;;;;;;;;;;;;;;6.09;100.00;101841.34;5012298;28;20377;-76
2023/10/15 00:56:04;;;;;;;;;;;;;;;6.05;100.00;101835.28;5010602;28;19925;-76
2023/10/15 01:03:53;;;;;;;;;;;;;;;6.03;100.00;101842.13;5020596;28;19919;-77
2023/10/15 01:09:08;;;;;;;;;;;;;;;6.04;100.00;101838.69;5015999;28;20332;-77
2023/10/15 01:11:37;;;;;;;;;;;;;;;5.98;100.00;101832.56;5033852;28;19922;-77
2023/10/15 01:14:02;;;;;;;;;;;;;;;5.87;100.00;101830.69;5039291;28;19923;-76
2023/10/15 01:16:28;;;;;;;;;;;;;;;5.77;100.00;101833.16;5005179;28;19917;-77
2023/10/15 01:19:31;;;;;;;;;;;;;;;5.68;100.00;101833.91;5018292;28;19924;-77
2023/10/15 01:21:57;;;;;;;;;;;;;;;5.61;100.00;101825.22;5009152;28;20360;-77
2023/10/15 01:24:22;;;;;;;;;;;;;;;5.55;100.00;101832.88;5016111;28;19917;-76
2023/10/15 01:26:59;;;;;;;;;;;;;;;5.50;100.00;101821.63;5014761;28;20070;-76
2023/10/15 01:29:28;;;;;;;;;;;;;;;5.44;100.00;101820.69;5013952;28;19917;-76
2023/10/15 01:31:58;;;;;;;;;;;;;;;5.38;100.00;101816.28;5012126;28;19917;-76
2023/10/15 01:34:23;;;;;;;;;;;;;;;5.31;100.00;101822.22;5019223;28;19977;-76
2023/10/15 01:36:50;;;;;;;;;;;;;;;5.24;100.00;101825.59;5021732;28;19968;-76
2023/10/15 01:39:22;;;;;;;;;;;;;;;5.18;100.00;101821.19;5051191;28;19917;-76
2023/10/15 01:41:55;;;;;;;;;;;;;;;5.17;100.00;101816.88;5028870;28;20387;-76
2023/10/15 01:44:20;;;;;;;;;;;;;;;5.16;100.00;101815.13;5019619;28;19916;-76
2023/10/15 01:46:48;;;;;;;;;;;;;;;5.14;100.00;101811.66;5021640;28;19940;-76
2023/10/15 01:49:30;;;;;;;;;;;;;;;5.15;100.00;101818.56;5007796;28;19917;-76
2023/10/15 01:51:56;;;;;;;;;;;;;;;5.18;100.00;101818.59;5031369;28;20284;-76
2023/10/15 01:54:22;;;;;;;;;;;;;;;5.28;100.00;101819.59;5016680;28;19922;-76
2023/10/15 01:56:47;;;;;;;;;;;;;;;5.36;100.00;101829.22;5021055;28;19958;-76
2023/10/15 01:59:13;;;;;;;;;;;;;;;5.44;100.00;101833.63;5016614;28;19969;-76
2023/10/15 02:01:41;;;;;;;;;;;;;;;5.45;100.00;101850.84;5038879;28;19917;-76
2023/10/15 02:04:14;;;;;;;;;;;;;;;5.39;100.00;101842.19;5011903;28;19922;-77
2023/10/15 02:06:43;;;;;;;;;;;;;;;5.33;100.00;101842.09;5012847;28;20421;-76
2023/10/15 02:09:11;;;;;;;;;;;;;;;5.27;100.00;101826.50;5011993;28;19921;-76
2023/10/15 02:11:43;;;;;;;;;;;;;;;5.24;100.00;101831.63;5022108;28;20431;-76
2023/10/15 02:14:09;;;;;;;;;;;;;;;5.21;100.00;101826.41;5026832;28;19918;-76
2023/10/15 02:16:37;;;;;;;;;;;;;;;5.20;100.00;101826.38;5014974;28;20643;-76
2023/10/15 02:19:07;;;;;;;;;;;;;;;5.21;100.00;101818.66;5031293;28;19923;-76
2023/10/15 02:21:33;;;;;;;;;;;;;;;5.26;100.00;101816.13;5022722;28;19952;-76
2023/10/15 02:24:07;;;;;;;;;;;;;;;5.29;100.00;101814.44;5022294;28;19999;-77
2023/10/15 02:26:32;;;;;;;;;;;;;;;5.29;100.00;101811.84;5010601;28;19924;-76
2023/10/15 02:29:06;;;;;;;;;;;;;;;5.27;100.00;101813.56;5007433;28;19921;-77
2023/10/15 02:31:31;;;;;;;;;;;;;;;5.30;100.00;101815.34;5013863;28;20344;-76
2023/10/15 02:33:56;;;;;;;;;;;;;;;5.33;100.00;101813.66;5038745;28;19956;-76
2023/10/15 02:36:24;;;;;;;;;;;;;;;5.28;100.00;101810.13;5077707;28;19916;-76
2023/10/15 02:38:52;;;;;;;;;;;;;;;5.21;100.00;101810.88;5012581;28;19962;-76
2023/10/15 02:41:21;;;;;;;;;;;;;;;5.16;100.00;101807.34;5020227;28;19924;-77
2023/10/15 02:43:51;;;;;;;;;;;;;;;5.11;100.00;101820.22;5039822;28;19917;-77
2023/10/15 02:46:22;;;;;;;;;;;;;;;5.11;100.00;101817.66;5015075;28;19917;-77
2023/10/15 02:48:48;;;;;;;;;;;;;;;5.18;100.00;101818.59;5016212;28;19922;-76
2023/10/15 02:51:17;;;;;;;;;;;;;;;5.20;100.00;101813.44;5019339;28;19971;-76
2023/10/15 02:53:50;;;;;;;;;;;;;;;5.22;100.00;101810.03;5012829;28;20380;-76
2023/10/15 02:56:15;;;;;;;;;;;;;;;5.23;100.00;101809.22;5014037;28;19921;-76
2023/10/15 02:58:43;;;;;;;;;;;;;;;5.22;100.00;101812.63;5021187;28;20050;-77
2023/10/15 03:01:18;;;;;;;;;;;;;;;5.22;100.00;101811.75;5027799;28;19928;-76
2023/10/15 03:03:48;;;;;;;;;;;;;;;5.26;100.00;101844.56;5042864;28;19917;-77
2023/10/15 03:06:18;;;;;;;;;;;;;;;5.35;100.00;101863.66;5012693;28;20012;-76
2023/10/15 03:08:45;;;;;;;;;;;;;;;5.46;100.00;101857.75;5007548;28;20011;-77
2023/10/15 03:11:14;;;;;;;;;;;;;;;5.54;100.00;101862.19;5012813;28;20418;-76
2023/10/15 03:13:55;;;;;;;;;;;;;;;5.59;100.00;101828.63;5012656;28;19917;-76
2023/10/15 03:16:21;;;;;;;;;;;;;;;5.67;100.00;101865.81;5015684;28;19921;-77
2023/10/15 03:18:50;;;;;;;;;;;;;;;5.68;100.00;101877.91;5049714;28;20328;-77
2023/10/15 03:21:30;;;;;;;;;;;;;;;5.74;100.00;101880.56;5035711;28;19954;-77
2023/10/15 03:23:56;;;;;;;;;;;;;;;5.77;100.00;101872.84;5035873;28;19917;-77
2023/10/15 03:26:24;;;;;;;;;;;;;;;5.84;100.00;101881.56;5004131;28;19918;-77
2023/10/15 03:28:58;;;;;;;;;;;;;;;5.89;100.00;101884.22;5009203;28;19921;-77
2023/10/15 03:31:27;;;;;;;;;;;;;;;5.93;100.00;101875.66;5022665;28;19918;-77
2023/10/15 03:36:26;;;;;;;;;;;;;;;5.98;100.00;101876.59;5070607;28;20390;-77
2023/10/15 03:38:52;;;;;;;;;;;;;;;5.98;100.00;101874.00;5014886;28;19945;-77
2023/10/15 03:41:27;;;;;;;;;;;;;;;6.00;100.00;101874.88;5000742;28;19935;-77
2023/10/15 03:43:53;;;;;;;;;;;;;;;6.02;100.00;101876.66;5013248;28;19928;-77
2023/10/15 03:46:19;;;;;;;;;;;;;;;6.05;100.00;101883.59;5048296;28;20327;-77
2023/10/15 03:48:50;;;;;;;;;;;;;;;6.09;100.00;101877.59;5016719;28;20008;-77
2023/10/15 03:51:20;;;;;;;;;;;;;;;6.06;100.00;101873.25;5023401;28;19917;-77
2023/10/15 03:53:49;;;;;;;;;;;;;;;5.99;100.00;101886.97;5011417;28;20013;-77
2023/10/15 03:56:18;;;;;;;;;;;;;;;5.95;100.00;101889.47;5011963;28;19932;-77
2023/10/15 03:58:43;;;;;;;;;;;;;;;5.93;100.00;101886.03;5005981;28;19921;-77
2023/10/15 04:03:35;;;;;;;;;;;;;;;5.90;100.00;101889.41;5017998;28;20384;-77
2023/10/15 04:06:01;;;;;;;;;;;;;;;5.93;100.00;101907.59;5028761;28;19925;-77
2023/10/15 04:08:27;;;;;;;;;;;;;;;5.95;100.00;101915.38;5043452;28;19917;-77
2023/10/15 04:10:55;;;;;;;;;;;;;;;5.97;100.00;101911.09;5001748;28;19924;-78
2023/10/15 04:13:20;;;;;;;;;;;;;;;5.96;100.00;101912.81;5024894;28;20011;-78
2023/10/15 04:15:45;;;;;;;;;;;;;;;5.98;100.00;101916.28;5023022;28;20020;-78
2023/10/15 04:18:10;;;;;;;;;;;;;;;6.01;100.00;101925.81;5020046;28;19925;-79
2023/10/15 04:20:41;;;;;;;;;;;;;;;6.04;100.00;101920.66;5018206;28;19999;-78
2023/10/15 04:23:11;;;;;;;;;;;;;;;6.07;100.00;101916.38;5034028;28;19921;-79
2023/10/15 04:25:37;;;;;;;;;;;;;;;6.08;100.00;101904.31;5055536;28;20075;-79
2023/10/15 04:28:15;;;;;;;;;;;;;;;6.09;100.00;101893.13;5026295;28;20449;-79
2023/10/15 04:30:40;;;;;;;;;;;;;;;6.08;100.00;101896.53;5029047;28;20360;-78
2023/10/15 04:33:11;;;;;;;;;;;;;;;6.05;100.00;101889.63;5013508;28;19925;-78
2023/10/15 04:35:37;;;;;;;;;;;;;;;6.06;100.00;101895.69;5012688;28;19963;-78
2023/10/15 04:38:06;;;;;;;;;;;;;;;6.05;100.00;101897.41;5037995;28;19915;-78
2023/10/15 04:40:40;;;;;;;;;;;;;;;6.05;100.00;101892.22;5023635;28;19918;-78
2023/10/15 04:43:05;;;;;;;;;;;;;;;6.04;100.00;101894.78;5042858;28;19956;-78
2023/10/15 04:48:01;;;;;;;;;;;;;;;6.02;100.00;101892.19;5032771;28;19921;-78
2023/10/15 04:50:35;;;;;;;;;;;;;;;6.04;100.00;101884.41;5048510;28;19962;-78
2023/10/15 04:53:23;;;;;;;;;;;;;;;6.05;100.00;101862.88;5050975;28;19921;-78
2023/10/15 04:55:48;;;;;;;;;;;;;;;6.05;100.00;101862.88;5050548;28;19943;-78
2023/10/15 04:58:14;;;;;;;;;;;;;;;6.03;100.00;101857.66;5059478;28;19917;-78
2023/10/15 05:00:39;;;;;;;;;;;;;;;6.02;100.00;101868.88;5046149;28;19924;-79
2023/10/15 05:03:05;;;;;;;;;;;;;;;6.02;100.00;101862.84;5026835;28;19917;-78
2023/10/15 05:05:31;;;;;;;;;;;;;;;6.02;100.00;101853.34;5029910;28;19953;-78
2023/10/15 05:08:00;;;;;;;;;;;;;;;6.04;100.00;101850.78;5013218;28;20012;-78
2023/10/15 05:10:29;;;;;;;;;;;;;;;6.02;100.00;101855.94;5016620;28;20497;-78
2023/10/15 05:12:55;;;;;;;;;;;;;;;5.99;100.00;101870.56;5012743;28;20008;-78
2023/10/15 05:15:20;;;;;;;;;;;;;;;5.98;100.00;101863.63;5016180;28;20008;-78
2023/10/15 05:17:47;;;;;;;;;;;;;;;5.96;100.00;101857.59;5017623;28;19956;-78
2023/10/15 05:20:13;;;;;;;;;;;;;;;5.95;100.00;101858.41;5017815;28;19917;-78
2023/10/15 05:22:39;;;;;;;;;;;;;;;5.95;100.00;101859.31;5019344;28;19918;-78
2023/10/15 05:25:04;;;;;;;;;;;;;;;5.96;100.00;101874.00;5024676;28;19921;-78
2023/10/15 05:27:30;;;;;;;;;;;;;;;5.95;100.00;101894.66;5023305;28;19921;-78
2023/10/15 05:29:57;;;;;;;;;;;;;;;5.94;100.00;101903.28;5014802;28;19923;-78
2023/10/15 05:32:23;;;;;;;;;;;;;;;5.94;100.00;101916.22;5035274;28;19923;-78
2023/10/15 05:34:49;;;;;;;;;;;;;;;5.93;100.00;101917.09;5030678;28;19925;-78
2023/10/15 05:37:16;;;;;;;;;;;;;;;5.82;100.00;101925.56;5015304;28;19959;-78
2023/10/15 05:39:41;;;;;;;;;;;;;;;5.84;100.00;101928.16;5039276;28;19996;-78
2023/10/15 05:42:07;;;;;;;;;;;;;;;5.76;100.00;101934.94;5015498;28;19970;-79
2023/10/15 05:44:32;;;;;;;;;;;;;;;5.73;100.00;101943.53;5025589;28;20261;-79
2023/10/15 05:46:58;;;;;;;;;;;;;;;5.71;100.00;101947.81;5020169;28;19925;-78
2023/10/15 05:49:23;;;;;;;;;;;;;;;5.70;100.00;101952.97;5014303;28;19921;-79
2023/10/15 05:51:48;;;;;;;;;;;;;;;5.66;100.00;101949.47;5013783;28;19964;-79
2023/10/15 05:54:13;;;;;;;;;;;;;;;5.61;100.00;101940.75;5012790;28;19922;-79
2023/10/15 05:56:38;;;;;;;;;;;;;;;5.61;100.00;101940.75;5014972;28;19914;-79
2023/10/15 05:59:05;;;;;;;;;;;;;;;5.63;100.00;101944.25;5022082;28;19921;-79
2023/10/15 06:01:31;;;;;;;;;;;;;;;5.64;100.00;101936.50;5017815;28;19972;-79
2023/10/15 06:03:57;;;;;;;;;;;;;;;5.63;100.00;101934.75;5029482;28;19921;-79
2023/10/15 06:06:22;;;;;;;;;;;;;;;5.64;100.00;101923.56;5026081;28;19917;-79
2023/10/15 06:08:49;;;;;;;;;;;;;;;5.64;100.00;101943.41;5074117;28;19924;-79
2023/10/15 06:11:14;;;;;;;;;;;;;;;5.63;100.00;101939.06;5016286;28;19924;-79
2023/10/15 06:13:39;;;;;;;;;;;;;;;5.61;100.00;101941.63;5027273;28;19921;-78
2023/10/15 06:16:04;;;;;;;;;;;;;;;5.63;100.00;101937.34;5019055;28;19932;-79
2023/10/15 06:18:30;;;;;;;;;;;;;;;5.67;100.00;101937.41;5015187;28;19925;-78
2023/10/15 06:20:55;;;;;;;;;;;;;;;5.67;100.00;101946.03;5020296;28;19983;-78
2023/10/15 06:23:20;;;;;;;;;;;;;;;5.68;100.00;101952.94;5018070;28;20388;-78
2023/10/15 06:25:45;;;;;;;;;;;;;;;5.69;100.00;101949.53;5006464;28;19940;-78
2023/10/15 06:28:14;;;;;;;;;;;;;;;5.71;100.00;101952.13;5012430;28;20380;-79
2023/10/15 06:30:39;;;;;;;;;;;;;;;5.73;100.00;101956.47;5014352;28;19924;-78
2023/10/15 06:33:05;;;;;;;;;;;;;;;5.75;100.00;101959.06;5007190;28;19917;-78
2023/10/15 06:35:30;;;;;;;;;;;;;;;5.77;100.00;101967.72;5035563;28;20402;-78
2023/10/15 06:37:55;;;;;;;;;;;;;;;5.78;100.00;101970.31;5014591;28;20265;-78
2023/10/15 06:40:21;;;;;;;;;;;;;;;5.79;100.00;101955.69;5035506;28;19918;-78
2023/10/15 06:42:47;;;;;;;;;;;;;;;5.80;100.00;101949.66;5024215;28;20388;-79
2023/10/15 06:45:16;;;;;;;;;;;;;;;5.75;100.00;101949.56;5035036;28;19917;-78
2023/10/15 06:47:41;;;;;;;;;;;;;;;5.68;100.00;101952.06;5020369;28;19954;-78
2023/10/15 06:50:07;;;;;;;;;;;;;;;5.60;100.00;101950.25;5024912;28;19960;-78
2023/10/15 06:52:37;;;;;;;;;;;;;;;5.55;100.00;101951.00;5010342;28;19971;-78
2023/10/15 06:55:04;;;;;;;;;;;;;;;5.53;100.00;101953.59;5037470;28;19923;-78
2023/10/15 06:57:29;;;;;;;;;;;;;;;5.59;100.00;101953.69;5019229;28;19918;-78
2023/10/15 06:59:54;;;;;;;;;;;;;;;5.62;100.00;101953.72;5022052;28;19920;-78
2023/10/15 07:02:19;;;;;;;;;;;;;;;5.63;100.00;101963.22;5014376;28;19921;-78
2023/10/15 07:04:44;;;;;;;;;;;;;;;5.60;100.00;101970.94;5019435;28;19943;-78
2023/10/15 07:07:10;;;;;;;;;;;;;;;5.57;100.00;101975.19;5012787;28;19928;-78
2023/10/15 07:09:36;;;;;;;;;;;;;;;5.58;100.00;101977.78;5016958;28;19917;-78
2023/10/15 07:12:02;;;;;;;;;;;;;;;5.66;100.00;101975.34;5026974;28;19973;-78
2023/10/15 07:14:29;;;;;;;;;;;;;;;5.76;100.00;101982.38;5023228;28;20372;-78
2023/10/15 07:16:55;;;;;;;;;;;;;;;5.83;100.00;101988.53;5017530;28;19924;-77
2023/10/15 07:19:20;;;;;;;;;;;;;;;5.80;100.00;101994.53;5006832;28;19913;-78
2023/10/15 07:21:46;;;;;;;;;;;;;;;5.77;100.00;101993.59;5002653;28;19918;-77
2023/10/15 07:24:11;;;;;;;;;;;;;;;5.76;100.00;101989.28;5007383;28;19968;-78
2023/10/15 07:26:39;;;;;;;;;;;;;;;5.91;100.00;101997.25;5002450;28;19948;-77
2023/10/15 07:29:05;;;;;;;;;;;;;;;6.08;100.00;102006.19;5008514;28;20066;-78
2023/10/15 07:31:30;;;;;;;;;;;;;;;6.22;100.00;102008.06;5024121;28;20383;-78
2023/10/15 07:33:55;;;;;;;;;;;;;;;6.33;100.00;102022.88;5011606;28;20265;-78
2023/10/15 07:36:22;;;;;;;;;;;;;;;6.42;100.00;102016.97;5010085;28;20352;-78
2023/10/15 07:38:47;;;;;;;;;;;;;;;6.47;100.00;102022.19;5014068;28;19956;-79
2023/10/15 07:41:12;;;;;;;;;;;;;;;6.47;100.00;102024.78;5030825;28;20005;-78
2023/10/15 07:43:37;;;;;;;;;;;;;;;6.49;100.00;102028.28;5012572;28;20393;-79
2023/10/15 07:46:03;;;;;;;;;;;;;;;6.54;100.00;102022.31;5019519;28;19916;-78
2023/10/15 07:48:29;;;;;;;;;;;;;;;6.60;100.00;102016.31;5020958;28;20412;-78
2023/10/15 07:50:54;;;;;;;;;;;;;;;6.60;100.00;102005.94;5020313;28;19917;-78
2023/10/15 07:53:19;;;;;;;;;;;;;;;6.65;100.00;102004.28;5013202;28;20408;-79
2023/10/15 07:55:46;;;;;;;;;;;;;;;6.79;100.00;102007.88;5015967;28;19932;-78
2023/10/15 07:58:11;;;;;;;;;;;;;;;6.99;100.00;102017.59;5025244;28;19913;-78
2023/10/15 08:00:37;;;;;;;;;;;;;;;7.09;100.00;102022.00;5039879;28;19971;-78
2023/10/15 08:03:02;;;;;;;;;;;;;;;7.12;100.00;102026.38;5011561;28;19980;-78
2023/10/15 08:05:31;;;;;;;;;;;;;;;7.14;100.00;102030.72;5012293;28;20021;-78
2023/10/15 08:07:57;;;;;;;;;;;;;;;7.19;100.00;102039.44;5010913;28;19917;-78
2023/10/15 08:10:24;;;;;;;;;;;;;;;7.26;100.00;102035.16;5024050;28;19914;-78
2023/10/15 08:12:50;;;;;;;;;;;;;;;7.34;100.00;102043.00;5028229;28;20307;-77
2023/10/15 08:15:15;;;;;;;;;;;;;;;7.36;100.00;102051.69;5008138;28;19932;-78
2023/10/15 08:17:41;;;;;;;;;;;;;;;7.37;100.00;102061.19;5027212;28;19970;-78
2023/10/15 08:20:09;;;;;;;;;;;;;;;7.39;100.00;102062.97;5020103;28;20358;-77
2023/10/15 08:22:35;;;;;;;;;;;;;;;7.35;100.00;102062.88;5020364;28;19924;-76
2023/10/15 08:25:00;;;;;;;;;;;;;;;7.29;100.00;102071.47;5074265;28;20280;-76
2023/10/15 08:27:26;;;;;;;;;;;;;;;7.19;100.00;102074.84;5038891;28;19921;-76
2023/10/15 08:29:51;;;;;;;;;;;;;;;7.17;100.00;102076.56;5021711;28;20002;-76
2023/10/15 08:32:20;;;;;;;;;;;;;;;7.20;100.00;102082.66;5035129;28;19917;-76
2023/10/15 08:34:45;;;;;;;;;;;;;;;7.30;100.00;102095.72;5036322;28;19959;-77
2023/10/15 08:37:11;;;;;;;;;;;;;;;7.28;100.00;102106.06;5021162;28;20013;-77
2023/10/15 08:39:38;;;;;;;;;;;;;;;7.22;100.00;102117.25;5020783;28;20042;-76
2023/10/15 08:42:03;;;;;;;;;;;;;;;7.16;100.00;102126.69;5006282;28;19974;-77
2023/10/15 08:44:29;;;;;;;;;;;;;;;7.15;100.00;102125.81;5018817;28;19917;-77
2023/10/15 08:46:56;;;;;;;;;;;;;;;7.14;100.00;102134.44;5035444;28;19916;-77
2023/10/15 08:49:23;;;;;;;;;;;;;;;7.11;100.00;102126.63;5055983;28;19931;-77
2023/10/15 08:51:50;;;;;;;;;;;;;;;7.11;100.00;102134.41;5015949;28;20288;-77
2023/10/15 08:54:15;;;;;;;;;;;;;;;7.22;100.00;102139.72;5018770;28;19970;-77
2023/10/15 08:56:41;;;;;;;;;;;;;;;7.20;100.00;102141.44;5040513;28;19917;-77
2023/10/15 08:59:09;;;;;;;;;;;;;;;7.13;100.00;102150.88;5022708;28;19924;-77
2023/10/15 09:01:35;;;;;;;;;;;;;;;7.08;100.00;102159.44;5040479;28;19961;-77
2023/10/15 09:04:00;;;;;;;;;;;;;;;7.06;100.00;102169.78;5010536;28;19971;-77
2023/10/15 09:06:26;;;;;;;;;;;;;;;7.07;100.00;102158.56;5022491;28;19956;-77
2023/10/15 09:08:52;;;;;;;;;;;;;;;7.13;100.00;102176.81;5023110;28;19918;-77
2023/10/15 09:11:19;;;;;;;;;;;;;;;7.20;100.00;102176.03;5029896;28;20368;-77
2023/10/15 09:13:51;;;;;;;;;;;;;;;7.21;100.00;102182.06;5025167;28;19917;-77
2023/10/15 09:16:16;;;;;;;;;;;;;;;7.24;100.00;102180.38;5026387;28;20344;-77
2023/10/15 09:18:43;;;;;;;;;;;;;;;7.28;100.00;102189.94;5029657;28;19917;-77
2023/10/15 09:21:09;;;;;;;;;;;;;;;7.36;100.00;102191.78;5036822;28;20292;-78
2023/10/15 09:23:39;;;;;;;;;;;;;;;7.36;100.00;102199.56;5008263;28;19917;-77
2023/10/15 09:26:05;;;;;;;;;;;;;;;7.37;100.00;102199.56;5019513;28;19914;-77
2023/10/15 09:28:31;;;;;;;;;;;;;;;7.42;100.00;102204.78;5026811;28;20063;-77
2023/10/15 09:31:03;;;;;;;;;;;;;;;7.42;100.00;102197.00;5046310;28;20019;-77
2023/10/15 09:33:29;;;;;;;;;;;;;;;7.45;100.00;102191.84;5020611;28;19925;-77
2023/10/15 09:35:55;;;;;;;;;;;;;;;7.52;100.00;102180.72;5039392;28;19917;-76
2023/10/15 09:38:20;;;;;;;;;;;;;;;7.58;100.00;102193.72;5014006;28;19925;-76
2023/10/15 09:40:46;;;;;;;;;;;;;;;7.85;100.00;102189.69;5023130;28;19924;-76
2023/10/15 09:43:13;;;;;;;;;;;;;;;8.07;100.00;102189.00;5020858;28;19920;-77
2023/10/15 09:45:41;;;;;;;;;;;;;;;8.10;100.00;102195.94;5011940;28;20449;-78
2023/10/15 09:48:09;;;;;;;;;;;;;;;8.16;100.00;102196.88;5018255;28;20059;-77
2023/10/15 09:50:38;;;;;;;;;;;;;;;8.02;100.00;102205.41;5014131;28;19913;-77
2023/10/15 09:53:09;;;;;;;;;;;;;;;7.98;100.00;102204.53;5016802;28;19917;-77
2023/10/15 09:55:34;;;;;;;;;;;;;;;8.01;100.00;102214.03;5037017;28;19917;-77
2023/10/15 09:58:10;;;;;;;;;;;;;;;8.06;100.00;102202.84;5025617;28;19923;-78
2023/10/15 10:03:38;;;;;;;;;;;;;;;8.11;100.00;102211.56;5017035;28;20372;-77
2023/10/15 10:06:09;;;;;;;;;;;;;;;8.20;100.00;102211.63;5012370;28;19917;-78
2023/10/15 10:08:53;;;;;;;;;;;;;;;8.27;100.00;102222.06;5016598;28;19917;-77
2023/10/15 10:11:28;;;;;;;;;;;;;;;8.31;100.00;102213.47;5012656;28;19924;-77
2023/10/15 10:13:53;;;;;;;;;;;;;;;8.36;100.00;102220.41;5017413;28;20386;-78
2023/10/15 10:16:28;;;;;;;;;;;;;;;8.35;100.00;102217.81;5020182;28;19962;-78
2023/10/15 10:18:53;;;;;;;;;;;;;;;8.21;100.00;102225.50;5021517;28;20380;-77
2023/10/15 10:21:19;;;;;;;;;;;;;;;8.12;100.00;102228.00;5012760;28;19917;-77
2023/10/15 10:23:46;;;;;;;;;;;;;;;8.12;100.00;102223.69;5012642;28;20390;-79
2023/10/15 10:26:12;;;;;;;;;;;;;;;8.18;100.00;102223.75;5020487;28;19955;-76
2023/10/15 10:28:38;;;;;;;;;;;;;;;8.20;100.00;102231.53;5000814;28;19953;-78
2023/10/15 10:31:06;;;;;;;;;;;;;;;8.25;100.00;102234.19;5013645;28;19924;-76
2023/10/15 10:33:44;;;;;;;;;;;;;;;8.24;100.00;102242.81;5014993;28;19924;-76
2023/10/15 10:36:13;;;;;;;;;;;;;;;8.17;100.00;102245.38;5027256;28;19921;-76
2023/10/15 10:38:39;;;;;;;;;;;;;;;8.14;100.00;102247.97;5016055;28;19917;-77
2023/10/15 10:41:06;;;;;;;;;;;;;;;8.10;100.00;102243.56;5014866;28;20388;-77
2023/10/15 10:43:33;;;;;;;;;;;;;;;8.16;100.00;102251.41;5046897;28;20391;-76
2023/10/15 10:45:59;;;;;;;;;;;;;;;8.33;100.00;102251.56;5019732;28;20046;-77
2023/10/15 10:48:28;;;;;;;;;;;;;;;8.60;100.00;102240.56;5022540;28;19917;-76
2023/10/15 10:51:08;;;;;;;;;;;;;;;8.88;100.00;102241.59;5015695;28;19924;-78
2023/10/15 10:53:33;;;;;;;;;;;;;;;9.02;100.00;102246.00;5018091;28;19956;-77
2023/10/15 10:56:03;;;;;;;;;;;;;;;9.02;100.00;102240.78;5021253;28;20385;-76
2023/10/15 10:58:29;;;;;;;;;;;;;;;9.19;100.00;102241.78;5022599;28;19917;-76
2023/10/15 11:00:56;;;;;;;;;;;;;;;9.24;100.00;102249.59;5041127;28;19920;-77
2023/10/15 11:03:22;;;;;;;;;;;;;;;9.19;100.00;102251.28;5013576;28;19917;-77
2023/10/15 11:05:47;;;;;;;;;;;;;;;9.03;100.00;102245.16;5040527;28;20410;-79
2023/10/15 11:08:16;;;;;;;;;;;;;;;8.90;100.00;102246.81;5027468;28;20019;-78
2023/10/15 11:10:44;;;;;;;;;;;;;;;8.79;100.00;102256.25;5017087;28;19918;-77
2023/10/15 11:13:09;;;;;;;;;;;;;;;8.78;100.00;102254.53;5038905;28;19919;-77
2023/10/15 11:15:35;;;;;;;;;;;;;;;8.77;100.00;102253.66;5080745;28;20335;-77
2023/10/15 11:18:04;;;;;;;;;;;;;;;8.83;100.00;102253.72;5054933;28;20364;-77
2023/10/15 11:20:33;;;;;;;;;;;;;;;8.92;100.00;102250.28;5017673;28;20375;-77
2023/10/15 11:23:01;;;;;;;;;;;;;;;8.86;100.00;102251.13;5051383;28;20360;-77
2023/10/15 11:25:26;;;;;;;;;;;;;;;8.90;100.00;102254.63;5028246;28;19963;-77
2023/10/15 11:27:51;;;;;;;;;;;;;;;9.02;100.00;102244.25;5048930;28;19917;-77
2023/10/15 11:30:18;;;;;;;;;;;;;;;9.11;100.00;102244.31;5034711;28;20283;-78
2023/10/15 11:32:44;;;;;;;;;;;;;;;9.17;100.00;102248.69;5013409;28;19924;-77
2023/10/15 11:35:13;;;;;;;;;;;;;;;9.23;100.00;102259.13;5031896;28;19921;-77
2023/10/15 11:37:38;;;;;;;;;;;;;;;9.19;100.00;102256.47;5023177;28;19913;-77
2023/10/15 11:40:04;;;;;;;;;;;;;;;9.05;100.00;102265.09;5035745;28;20060;-77
2023/10/15 11:42:29;;;;;;;;;;;;;;;8.84;100.00;102272.78;5023414;28;20364;-77
2023/10/15 11:44:56;;;;;;;;;;;;;;;8.65;100.00;102266.56;5039352;28;19916;-77
2023/10/15 11:47:24;;;;;;;;;;;;;;;8.78;100.00;102264.94;5021761;28;20400;-77
2023/10/15 11:49:50;;;;;;;;;;;;;;;9.12;100.00;102259.09;5041076;28;20432;-77
2023/10/15 11:52:18;;;;;;;;;;;;;;;9.60;100.00;102251.47;5016252;28;19918;-77
2023/10/15 11:54:48;;;;;;;;;;;;;;;10.15;100.00;102250.69;5038563;28;19954;-77
2023/10/15 11:57:16;;;;;;;;;;;;;;;10.61;100.00;102245.50;5024190;28;19917;-77
2023/10/15 11:59:41;;;;;;;;;;;;;;;11.08;100.00;102241.91;5033790;28;20384;-77
2023/10/15 12:02:10;;;;;;;;;;;;;;;11.44;100.00;102239.19;5033297;28;19921;-77
2023/10/15 12:04:36;;;;;;;;;;;;;;;11.80;100.00;102238.97;5068336;28;20375;-77
2023/10/15 12:07:02;;;;;;;;;;;;;;;11.85;100.00;102243.31;5079595;28;19920;-77
2023/10/15 12:09:28;;;;;;;;;;;;;;;11.89;100.00;102238.94;5023590;28;19940;-77
2023/10/15 12:11:54;;;;;;;;;;;;;;;11.62;100.00;102240.81;5047267;28;20364;-77
2023/10/15 12:14:19;;;;;;;;;;;;;;;11.50;100.00;102240.88;5021047;28;20369;-77
2023/10/15 12:16:44;;;;;;;;;;;;;;;11.75;100.00;102239.00;5043323;28;20368;-77
2023/10/15 12:19:09;;;;;;;;;;;;;;;12.29;100.00;102241.25;5017909;28;20277;-77
2023/10/15 12:21:38;;;;;;;;;;;;;;;12.81;100.00;102241.63;5065996;28;19958;-77
2023/10/15 12:24:04;;;;;;;;;;;;;;;12.56;100.00;102241.03;5028130;28;20011;-77
2023/10/15 12:26:29;;;;;;;;;;;;;;;12.71;100.00;102241.75;5044993;28;19951;-77
2023/10/15 12:28:55;;;;;;;;;;;;;;;13.08;100.00;102245.72;5028798;28;19956;-77
2023/10/15 12:31:20;;;;;;;;;;;;;;;13.22;100.00;102242.94;5040191;28;19921;-77
2023/10/15 12:33:46;;;;;;;;;;;;;;;12.73;100.00;102238.25;5016222;28;19917;-77
2023/10/15 12:36:11;;;;;;;;;;;;;;;11.99;100.00;102235.38;5038315;28;19924;-77
2023/10/15 12:38:39;;;;;;;;;;;;;;;11.18;100.00;102249.72;5019484;28;19925;-77
2023/10/15 12:41:04;;;;;;;;;;;;;;;10.55;100.00;102256.81;5038209;28;19967;-77
2023/10/15 12:43:31;;;;;;;;;;;;;;;10.29;100.00;102252.47;5021120;28;20420;-77
2023/10/15 12:45:56;;;;;;;;;;;;;;;10.03;100.00;102252.41;5041670;28;19966;-77
2023/10/15 12:48:21;;;;;;;;;;;;;;;9.71;100.00;102260.19;5039539;28;19927;-77
2023/10/15 12:50:47;;;;;;;;;;;;;;;9.45;100.00;102257.50;5058525;28;20004;-77
2023/10/15 12:53:12;;;;;;;;;;;;;;;9.31;100.00;102254.81;5022923;28;20325;-77
2023/10/15 12:55:38;;;;;;;;;;;;;;;9.42;100.00;102257.47;5042690;28;19971;-77